sensor_id;sensor_type;location;lat;lon;timestamp;P1;durP1;ratioP1;P2;durP2;ratioP2
3261;SDS011;1643;47.746;9.000;2024-03-25T00:01:19;1.57;;;1.10;;
3261;SDS011;1643;47.746;9.000;2024-03-25T00:03:44;1.80;;;1.40;;
3261;SDS011;1643;47.746;9.000;2024-03-25T00:06:10;1.40;;;1.23;;
3261;SDS011;1643;47.746;9.000;2024-03-25T00:08:35;1.23;;;1.17;;
3261;SDS011;1643;47.746;9.000;2024-03-25T00:11:01;1.23;;;1.13;;
3261;SDS011;1643;47.746;9.000;2024-03-25T00:13:27;4.27;;;1.70;;
3261;SDS011;1643;47.746;9.000;2024-03-25T00:15:53;1.10;;;1.00;;
3261;SDS011;1643;47.746;9.000;2024-03-25T00:18:18;1.57;;;1.47;;
3261;SDS011;1643;47.746;9.000;2024-03-25T00:20:44;2.53;;;1.40;;
3261;SDS011;1643;47.746;9.000;2024-03-25T00:23:10;3.57;;;1.43;;
3261;SDS011;1643;47.746;9.000;2024-03-25T00:25:36;3.33;;;1.50;;
3261;SDS011;1643;47.746;9.000;2024-03-25T00:28:02;2.40;;;1.50;;
3261;SDS011;1643;47.746;9.000;2024-03-25T00:30:29;2.80;;;1.43;;
3261;SDS011;1643;47.746;9.000;2024-03-25T00:32:55;3.23;;;1.60;;
3261;SDS011;1643;47.746;9.000;2024-03-25T00:35:20;1.30;;;1.20;;
3261;SDS011;1643;47.746;9.000;2024-03-25T00:37:46;2.93;;;1.70;;
3261;SDS011;1643;47.746;9.000;2024-03-25T00:40:12;2.70;;;1.60;;
3261;SDS011;1643;47.746;9.000;2024-03-25T00:42:37;1.37;;;1.27;;
3261;SDS011;1643;47.746;9.000;2024-03-25T00:45:04;9.40;;;1.50;;
3261;SDS011;1643;47.746;9.000;2024-03-25T00:47:32;1.33;;;1.23;;
3261;SDS011;1643;47.746;9.000;2024-03-25T00:49:58;2.27;;;1.23;;
3261;SDS011;1643;47.746;9.000;2024-03-25T00:52:24;1.60;;;1.50;;
3261;SDS011;1643;47.746;9.000;2024-03-25T00:54:50;4.30;;;1.63;;
3261;SDS011;1643;47.746;9.000;2024-03-25T00:57:15;3.07;;;1.73;;
3261;SDS011;1643;47.746;9.000;2024-03-25T00:59:41;1.70;;;1.60;;
3261;SDS011;1643;47.746;9.000;2024-03-25T01:02:06;2.33;;;1.90;;
3261;SDS011;1643;47.746;9.000;2024-03-25T01:04:33;4.20;;;2.33;;
3261;SDS011;1643;47.746;9.000;2024-03-25T01:06:59;3.47;;;1.77;;
3261;SDS011;1643;47.746;9.000;2024-03-25T01:09:24;3.67;;;1.57;;
3261;SDS011;1643;47.746;9.000;2024-03-25T01:11:50;4.87;;;2.00;;
3261;SDS011;1643;47.746;9.000;2024-03-25T01:14:16;1.60;;;1.50;;
3261;SDS011;1643;47.746;9.000;2024-03-25T01:16:42;1.70;;;1.40;;
3261;SDS011;1643;47.746;9.000;2024-03-25T01:19:08;1.80;;;1.30;;
3261;SDS011;1643;47.746;9.000;2024-03-25T01:21:34;2.80;;;1.80;;
3261;SDS011;1643;47.746;9.000;2024-03-25T01:23:59;1.90;;;1.70;;
3261;SDS011;1643;47.746;9.000;2024-03-25T01:26:26;2.47;;;1.43;;
3261;SDS011;1643;47.746;9.000;2024-03-25T01:28:52;3.97;;;1.47;;
3261;SDS011;1643;47.746;9.000;2024-03-25T01:31:18;3.50;;;1.80;;
3261;SDS011;1643;47.746;9.000;2024-03-25T01:33:44;3.20;;;2.20;;
3261;SDS011;1643;47.746;9.000;2024-03-25T01:36:10;3.90;;;1.50;;
3261;SDS011;1643;47.746;9.000;2024-03-25T01:38:41;2.10;;;1.90;;
3261;SDS011;1643;47.746;9.000;2024-03-25T01:41:10;2.57;;;2.00;;
3261;SDS011;1643;47.746;9.000;2024-03-25T01:43:37;1.87;;;1.40;;
3261;SDS011;1643;47.746;9.000;2024-03-25T01:46:03;1.77;;;1.67;;
3261;SDS011;1643;47.746;9.000;2024-03-25T01:48:30;4.80;;;1.57;;
3261;SDS011;1643;47.746;9.000;2024-03-25T01:50:56;1.90;;;1.73;;
3261;SDS011;1643;47.746;9.000;2024-03-25T01:53:23;2.50;;;2.00;;
3261;SDS011;1643;47.746;9.000;2024-03-25T01:55:51;1.60;;;1.10;;
3261;SDS011;1643;47.746;9.000;2024-03-25T01:58:22;2.60;;;1.53;;
3261;SDS011;1643;47.746;9.000;2024-03-25T02:00:48;1.53;;;1.40;;
3261;SDS011;1643;47.746;9.000;2024-03-25T02:03:15;1.63;;;1.20;;
3261;SDS011;1643;47.746;9.000;2024-03-25T02:05:41;1.30;;;1.20;;
3261;SDS011;1643;47.746;9.000;2024-03-25T02:08:07;1.30;;;1.20;;
3261;SDS011;1643;47.746;9.000;2024-03-25T02:10:35;2.10;;;1.60;;
3261;SDS011;1643;47.746;9.000;2024-03-25T02:13:02;1.50;;;1.40;;
3261;SDS011;1643;47.746;9.000;2024-03-25T02:15:28;2.70;;;1.77;;
3261;SDS011;1643;47.746;9.000;2024-03-25T02:17:54;3.30;;;1.50;;
3261;SDS011;1643;47.746;9.000;2024-03-25T02:20:20;1.30;;;1.20;;
3261;SDS011;1643;47.746;9.000;2024-03-25T02:22:46;1.67;;;1.43;;
3261;SDS011;1643;47.746;9.000;2024-03-25T02:25:11;1.63;;;1.30;;
3261;SDS011;1643;47.746;9.000;2024-03-25T02:27:41;2.17;;;1.83;;
3261;SDS011;1643;47.746;9.000;2024-03-25T02:30:10;1.80;;;1.50;;
3261;SDS011;1643;47.746;9.000;2024-03-25T02:32:40;2.30;;;1.50;;
3261;SDS011;1643;47.746;9.000;2024-03-25T02:35:10;1.40;;;1.30;;
3261;SDS011;1643;47.746;9.000;2024-03-25T02:37:39;2.50;;;1.43;;
3261;SDS011;1643;47.746;9.000;2024-03-25T02:40:06;2.23;;;1.47;;
3261;SDS011;1643;47.746;9.000;2024-03-25T02:42:34;2.27;;;1.80;;
3261;SDS011;1643;47.746;9.000;2024-03-25T02:45:01;1.30;;;1.20;;
3261;SDS011;1643;47.746;9.000;2024-03-25T02:47:27;3.20;;;1.73;;
3261;SDS011;1643;47.746;9.000;2024-03-25T02:49:53;1.57;;;1.47;;
3261;SDS011;1643;47.746;9.000;2024-03-25T02:52:19;1.50;;;1.20;;
3261;SDS011;1643;47.746;9.000;2024-03-25T02:54:45;1.57;;;1.47;;
3261;SDS011;1643;47.746;9.000;2024-03-25T02:57:11;1.33;;;1.23;;
3261;SDS011;1643;47.746;9.000;2024-03-25T02:59:36;3.20;;;1.30;;
3261;SDS011;1643;47.746;9.000;2024-03-25T03:02:02;3.33;;;1.33;;
3261;SDS011;1643;47.746;9.000;2024-03-25T03:04:28;1.60;;;1.47;;
3261;SDS011;1643;47.746;9.000;2024-03-25T03:06:53;3.50;;;1.40;;
3261;SDS011;1643;47.746;9.000;2024-03-25T03:09:19;2.03;;;1.40;;
3261;SDS011;1643;47.746;9.000;2024-03-25T03:11:44;1.30;;;1.20;;
3261;SDS011;1643;47.746;9.000;2024-03-25T03:14:10;1.57;;;1.40;;
3261;SDS011;1643;47.746;9.000;2024-03-25T03:16:36;2.60;;;1.40;;
3261;SDS011;1643;47.746;9.000;2024-03-25T03:19:02;2.20;;;1.47;;
3261;SDS011;1643;47.746;9.000;2024-03-25T03:21:28;1.20;;;1.10;;
3261;SDS011;1643;47.746;9.000;2024-03-25T03:23:55;2.10;;;1.43;;
3261;SDS011;1643;47.746;9.000;2024-03-25T03:26:21;1.90;;;1.30;;
3261;SDS011;1643;47.746;9.000;2024-03-25T03:28:51;1.80;;;1.50;;
3261;SDS011;1643;47.746;9.000;2024-03-25T03:31:20;4.23;;;1.67;;
3261;SDS011;1643;47.746;9.000;2024-03-25T03:33:49;2.13;;;1.30;;
3261;SDS011;1643;47.746;9.000;2024-03-25T03:36:15;2.47;;;1.40;;
3261;SDS011;1643;47.746;9.000;2024-03-25T03:38:42;1.20;;;1.10;;
3261;SDS011;1643;47.746;9.000;2024-03-25T03:41:08;1.20;;;1.10;;
3261;SDS011;1643;47.746;9.000;2024-03-25T03:43:34;1.60;;;1.50;;
3261;SDS011;1643;47.746;9.000;2024-03-25T03:45:59;2.40;;;1.37;;
3261;SDS011;1643;47.746;9.000;2024-03-25T03:48:25;2.60;;;1.37;;
3261;SDS011;1643;47.746;9.000;2024-03-25T03:50:51;2.43;;;1.70;;
3261;SDS011;1643;47.746;9.000;2024-03-25T03:53:17;3.07;;;1.40;;
3261;SDS011;1643;47.746;9.000;2024-03-25T03:55:52;1.50;;;1.40;;
3261;SDS011;1643;47.746;9.000;2024-03-25T03:58:27;1.67;;;1.43;;
3261;SDS011;1643;47.746;9.000;2024-03-25T04:00:52;1.30;;;1.20;;
3261;SDS011;1643;47.746;9.000;2024-03-25T04:03:18;1.30;;;1.20;;
3261;SDS011;1643;47.746;9.000;2024-03-25T04:05:44;2.10;;;1.63;;
3261;SDS011;1643;47.746;9.000;2024-03-25T04:08:10;2.47;;;1.63;;
3261;SDS011;1643;47.746;9.000;2024-03-25T04:10:36;2.03;;;1.67;;
3261;SDS011;1643;47.746;9.000;2024-03-25T04:13:03;2.13;;;1.77;;
3261;SDS011;1643;47.746;9.000;2024-03-25T04:15:32;1.63;;;1.47;;
3261;SDS011;1643;47.746;9.000;2024-03-25T04:17:58;1.63;;;1.53;;
3261;SDS011;1643;47.746;9.000;2024-03-25T04:20:24;2.97;;;2.23;;
3261;SDS011;1643;47.746;9.000;2024-03-25T04:22:49;1.80;;;1.53;;
3261;SDS011;1643;47.746;9.000;2024-03-25T04:25:15;1.97;;;1.73;;
3261;SDS011;1643;47.746;9.000;2024-03-25T04:27:41;1.70;;;1.60;;
3261;SDS011;1643;47.746;9.000;2024-03-25T04:30:08;1.70;;;1.53;;
3261;SDS011;1643;47.746;9.000;2024-03-25T04:32:35;1.60;;;1.40;;
3261;SDS011;1643;47.746;9.000;2024-03-25T04:35:01;2.63;;;1.30;;
3261;SDS011;1643;47.746;9.000;2024-03-25T04:37:28;1.97;;;1.63;;
3261;SDS011;1643;47.746;9.000;2024-03-25T04:39:54;1.90;;;1.50;;
3261;SDS011;1643;47.746;9.000;2024-03-25T04:42:20;1.53;;;1.43;;
3261;SDS011;1643;47.746;9.000;2024-03-25T04:44:46;3.10;;;1.70;;
3261;SDS011;1643;47.746;9.000;2024-03-25T04:47:11;2.80;;;1.50;;
3261;SDS011;1643;47.746;9.000;2024-03-25T04:49:37;4.70;;;1.40;;
3261;SDS011;1643;47.746;9.000;2024-03-25T04:52:04;1.87;;;1.73;;
3261;SDS011;1643;47.746;9.000;2024-03-25T04:54:29;1.50;;;1.40;;
3261;SDS011;1643;47.746;9.000;2024-03-25T04:56:55;1.90;;;1.57;;
3261;SDS011;1643;47.746;9.000;2024-03-25T04:59:21;5.00;;;2.23;;
3261;SDS011;1643;47.746;9.000;2024-03-25T05:01:47;1.70;;;1.60;;
3261;SDS011;1643;47.746;9.000;2024-03-25T05:04:12;3.50;;;1.73;;
3261;SDS011;1643;47.746;9.000;2024-03-25T05:06:38;5.97;;;1.60;;
3261;SDS011;1643;47.746;9.000;2024-03-25T05:09:07;1.40;;;1.30;;
3261;SDS011;1643;47.746;9.000;2024-03-25T05:11:32;2.60;;;1.50;;
3261;SDS011;1643;47.746;9.000;2024-03-25T05:13:58;2.00;;;1.80;;
3261;SDS011;1643;47.746;9.000;2024-03-25T05:16:24;1.70;;;1.60;;
3261;SDS011;1643;47.746;9.000;2024-03-25T05:18:50;1.60;;;1.50;;
3261;SDS011;1643;47.746;9.000;2024-03-25T05:21:16;1.93;;;1.60;;
3261;SDS011;1643;47.746;9.000;2024-03-25T05:23:41;5.37;;;2.90;;
3261;SDS011;1643;47.746;9.000;2024-03-25T05:26:07;10.23;;;4.70;;
3261;SDS011;1643;47.746;9.000;2024-03-25T05:28:33;4.83;;;3.47;;
3261;SDS011;1643;47.746;9.000;2024-03-25T05:31:05;6.17;;;4.90;;
3261;SDS011;1643;47.746;9.000;2024-03-25T05:33:31;8.63;;;6.23;;
3261;SDS011;1643;47.746;9.000;2024-03-25T05:35:58;9.13;;;6.13;;
3261;SDS011;1643;47.746;9.000;2024-03-25T05:38:24;9.90;;;5.20;;
3261;SDS011;1643;47.746;9.000;2024-03-25T05:40:49;8.10;;;5.53;;
3261;SDS011;1643;47.746;9.000;2024-03-25T05:43:15;7.47;;;4.53;;
3261;SDS011;1643;47.746;9.000;2024-03-25T05:45:40;4.60;;;3.70;;
3261;SDS011;1643;47.746;9.000;2024-03-25T05:48:14;5.90;;;3.57;;
3261;SDS011;1643;47.746;9.000;2024-03-25T05:50:40;4.10;;;3.00;;
3261;SDS011;1643;47.746;9.000;2024-03-25T05:53:05;4.27;;;2.63;;
3261;SDS011;1643;47.746;9.000;2024-03-25T05:55:31;5.23;;;2.60;;
3261;SDS011;1643;47.746;9.000;2024-03-25T05:57:57;1.90;;;1.70;;
3261;SDS011;1643;47.746;9.000;2024-03-25T06:00:22;1.90;;;1.70;;
3261;SDS011;1643;47.746;9.000;2024-03-25T06:02:49;4.60;;;1.73;;
3261;SDS011;1643;47.746;9.000;2024-03-25T06:05:15;2.70;;;1.63;;
3261;SDS011;1643;47.746;9.000;2024-03-25T06:07:40;4.87;;;2.63;;
3261;SDS011;1643;47.746;9.000;2024-03-25T06:10:06;4.60;;;2.77;;
3261;SDS011;1643;47.746;9.000;2024-03-25T06:12:32;3.67;;;2.40;;
3261;SDS011;1643;47.746;9.000;2024-03-25T06:14:57;5.40;;;2.60;;
3261;SDS011;1643;47.746;9.000;2024-03-25T06:17:23;2.10;;;1.90;;
3261;SDS011;1643;47.746;9.000;2024-03-25T06:19:49;2.63;;;2.43;;
3261;SDS011;1643;47.746;9.000;2024-03-25T06:22:16;2.20;;;2.00;;
3261;SDS011;1643;47.746;9.000;2024-03-25T06:24:42;3.03;;;2.00;;
3261;SDS011;1643;47.746;9.000;2024-03-25T06:27:09;2.23;;;1.90;;
3261;SDS011;1643;47.746;9.000;2024-03-25T06:29:35;1.60;;;1.50;;
3261;SDS011;1643;47.746;9.000;2024-03-25T06:32:01;1.80;;;1.70;;
3261;SDS011;1643;47.746;9.000;2024-03-25T06:34:45;1.60;;;1.50;;
3261;SDS011;1643;47.746;9.000;2024-03-25T06:37:10;2.30;;;1.80;;
3261;SDS011;1643;47.746;9.000;2024-03-25T06:39:36;6.30;;;1.90;;
3261;SDS011;1643;47.746;9.000;2024-03-25T06:42:02;2.00;;;1.90;;
3261;SDS011;1643;47.746;9.000;2024-03-25T06:44:28;1.73;;;1.40;;
3261;SDS011;1643;47.746;9.000;2024-03-25T06:46:53;1.70;;;1.60;;
3261;SDS011;1643;47.746;9.000;2024-03-25T06:49:21;1.73;;;1.63;;
3261;SDS011;1643;47.746;9.000;2024-03-25T06:51:46;4.40;;;2.10;;
3261;SDS011;1643;47.746;9.000;2024-03-25T06:54:12;2.60;;;2.37;;
3261;SDS011;1643;47.746;9.000;2024-03-25T06:56:38;1.90;;;1.70;;
3261;SDS011;1643;47.746;9.000;2024-03-25T06:59:03;2.77;;;1.90;;
3261;SDS011;1643;47.746;9.000;2024-03-25T07:01:29;1.80;;;1.70;;
3261;SDS011;1643;47.746;9.000;2024-03-25T07:03:54;3.50;;;2.10;;
3261;SDS011;1643;47.746;9.000;2024-03-25T07:06:20;8.67;;;2.07;;
3261;SDS011;1643;47.746;9.000;2024-03-25T07:08:45;3.00;;;1.83;;
3261;SDS011;1643;47.746;9.000;2024-03-25T07:11:12;8.53;;;2.20;;
3261;SDS011;1643;47.746;9.000;2024-03-25T07:13:38;5.73;;;2.47;;
3261;SDS011;1643;47.746;9.000;2024-03-25T07:16:04;3.03;;;2.00;;
3261;SDS011;1643;47.746;9.000;2024-03-25T07:18:30;2.40;;;2.20;;
3261;SDS011;1643;47.746;9.000;2024-03-25T07:20:55;1.60;;;1.50;;
3261;SDS011;1643;47.746;9.000;2024-03-25T07:23:21;1.77;;;1.67;;
3261;SDS011;1643;47.746;9.000;2024-03-25T07:25:47;2.97;;;1.83;;
3261;SDS011;1643;47.746;9.000;2024-03-25T07:28:12;7.03;;;1.83;;
3261;SDS011;1643;47.746;9.000;2024-03-25T07:30:38;2.10;;;1.70;;
3261;SDS011;1643;47.746;9.000;2024-03-25T07:33:03;2.40;;;1.87;;
3261;SDS011;1643;47.746;9.000;2024-03-25T07:35:30;3.07;;;1.83;;
3261;SDS011;1643;47.746;9.000;2024-03-25T07:37:55;4.43;;;3.47;;
3261;SDS011;1643;47.746;9.000;2024-03-25T07:40:21;2.73;;;2.50;;
3261;SDS011;1643;47.746;9.000;2024-03-25T07:42:48;3.20;;;2.60;;
3261;SDS011;1643;47.746;9.000;2024-03-25T07:45:14;2.00;;;1.80;;
3261;SDS011;1643;47.746;9.000;2024-03-25T07:47:40;2.13;;;1.97;;
3261;SDS011;1643;47.746;9.000;2024-03-25T07:50:06;3.47;;;1.80;;
3261;SDS011;1643;47.746;9.000;2024-03-25T07:52:32;7.73;;;1.80;;
3261;SDS011;1643;47.746;9.000;2024-03-25T07:54:57;2.07;;;1.57;;
3261;SDS011;1643;47.746;9.000;2024-03-25T07:57:23;1.57;;;1.47;;
3261;SDS011;1643;47.746;9.000;2024-03-25T07:59:50;1.97;;;1.70;;
3261;SDS011;1643;47.746;9.000;2024-03-25T08:02:15;7.57;;;4.50;;
3261;SDS011;1643;47.746;9.000;2024-03-25T08:04:41;10.87;;;6.93;;
3261;SDS011;1643;47.746;9.000;2024-03-25T08:07:07;9.90;;;6.23;;
3261;SDS011;1643;47.746;9.000;2024-03-25T08:09:32;4.70;;;3.60;;
3261;SDS011;1643;47.746;9.000;2024-03-25T08:11:58;6.00;;;2.73;;
3261;SDS011;1643;47.746;9.000;2024-03-25T08:14:24;2.83;;;2.53;;
3261;SDS011;1643;47.746;9.000;2024-03-25T08:16:49;3.47;;;2.90;;
3261;SDS011;1643;47.746;9.000;2024-03-25T08:19:15;3.20;;;2.30;;
3261;SDS011;1643;47.746;9.000;2024-03-25T08:21:41;3.90;;;2.20;;
3261;SDS011;1643;47.746;9.000;2024-03-25T08:24:06;1.90;;;1.63;;
3261;SDS011;1643;47.746;9.000;2024-03-25T08:26:32;2.00;;;1.80;;
3261;SDS011;1643;47.746;9.000;2024-03-25T08:28:58;1.97;;;1.87;;
3261;SDS011;1643;47.746;9.000;2024-03-25T08:31:24;2.03;;;1.90;;
3261;SDS011;1643;47.746;9.000;2024-03-25T08:33:49;1.80;;;1.70;;
3261;SDS011;1643;47.746;9.000;2024-03-25T08:36:15;2.63;;;2.43;;
3261;SDS011;1643;47.746;9.000;2024-03-25T08:38:41;2.30;;;1.67;;
3261;SDS011;1643;47.746;9.000;2024-03-25T08:41:07;5.13;;;1.90;;
3261;SDS011;1643;47.746;9.000;2024-03-25T08:43:32;2.03;;;1.63;;
3261;SDS011;1643;47.746;9.000;2024-03-25T08:45:58;1.80;;;1.70;;
3261;SDS011;1643;47.746;9.000;2024-03-25T08:48:24;4.50;;;2.30;;
3261;SDS011;1643;47.746;9.000;2024-03-25T08:50:49;2.63;;;2.00;;
3261;SDS011;1643;47.746;9.000;2024-03-25T08:53:15;2.00;;;1.50;;
3261;SDS011;1643;47.746;9.000;2024-03-25T08:55:45;2.07;;;1.87;;
3261;SDS011;1643;47.746;9.000;2024-03-25T08:58:11;4.70;;;1.67;;
3261;SDS011;1643;47.746;9.000;2024-03-25T09:00:40;2.50;;;1.70;;
3261;SDS011;1643;47.746;9.000;2024-03-25T09:03:07;3.40;;;1.93;;
3261;SDS011;1643;47.746;9.000;2024-03-25T09:05:33;2.83;;;2.57;;
3261;SDS011;1643;47.746;9.000;2024-03-25T09:07:59;2.20;;;1.77;;
3261;SDS011;1643;47.746;9.000;2024-03-25T09:10:25;4.97;;;2.00;;
3261;SDS011;1643;47.746;9.000;2024-03-25T09:13:09;3.27;;;2.20;;
3261;SDS011;1643;47.746;9.000;2024-03-25T09:15:35;3.80;;;1.93;;
3261;SDS011;1643;47.746;9.000;2024-03-25T09:18:01;2.03;;;1.73;;
3261;SDS011;1643;47.746;9.000;2024-03-25T09:20:26;3.50;;;2.43;;
3261;SDS011;1643;47.746;9.000;2024-03-25T09:22:52;6.50;;;2.90;;
3261;SDS011;1643;47.746;9.000;2024-03-25T09:25:18;7.30;;;2.00;;
3261;SDS011;1643;47.746;9.000;2024-03-25T09:27:47;2.50;;;1.50;;
3261;SDS011;1643;47.746;9.000;2024-03-25T09:30:13;2.20;;;1.80;;
3261;SDS011;1643;47.746;9.000;2024-03-25T09:32:40;4.33;;;2.63;;
3261;SDS011;1643;47.746;9.000;2024-03-25T09:35:09;2.57;;;1.80;;
3261;SDS011;1643;47.746;9.000;2024-03-25T09:37:34;2.33;;;2.13;;
3261;SDS011;1643;47.746;9.000;2024-03-25T09:40:00;3.20;;;2.23;;
3261;SDS011;1643;47.746;9.000;2024-03-25T09:42:39;1.77;;;1.67;;
3261;SDS011;1643;47.746;9.000;2024-03-25T09:45:08;4.73;;;2.17;;
3261;SDS011;1643;47.746;9.000;2024-03-25T09:47:34;3.07;;;1.30;;
3261;SDS011;1643;47.746;9.000;2024-03-25T09:50:02;1.60;;;1.30;;
3261;SDS011;1643;47.746;9.000;2024-03-25T09:52:29;1.43;;;1.33;;
3261;SDS011;1643;47.746;9.000;2024-03-25T09:54:55;2.77;;;1.80;;
3261;SDS011;1643;47.746;9.000;2024-03-25T09:57:21;2.10;;;1.53;;
3261;SDS011;1643;47.746;9.000;2024-03-25T09:59:47;1.90;;;1.73;;
3261;SDS011;1643;47.746;9.000;2024-03-25T10:02:13;3.80;;;1.97;;
3261;SDS011;1643;47.746;9.000;2024-03-25T10:04:44;4.10;;;1.93;;
3261;SDS011;1643;47.746;9.000;2024-03-25T10:07:11;2.20;;;2.00;;
3261;SDS011;1643;47.746;9.000;2024-03-25T10:09:47;4.20;;;1.67;;
3261;SDS011;1643;47.746;9.000;2024-03-25T10:12:12;1.43;;;1.33;;
3261;SDS011;1643;47.746;9.000;2024-03-25T10:14:41;3.50;;;1.80;;
3261;SDS011;1643;47.746;9.000;2024-03-25T10:17:07;8.00;;;3.03;;
3261;SDS011;1643;47.746;9.000;2024-03-25T10:19:33;2.50;;;2.03;;
3261;SDS011;1643;47.746;9.000;2024-03-25T10:22:05;1.60;;;1.50;;
3261;SDS011;1643;47.746;9.000;2024-03-25T10:24:42;2.00;;;1.57;;
3261;SDS011;1643;47.746;9.000;2024-03-25T10:27:19;1.27;;;1.17;;
3261;SDS011;1643;47.746;9.000;2024-03-25T10:29:48;2.63;;;1.60;;
3261;SDS011;1643;47.746;9.000;2024-03-25T10:32:17;2.47;;;1.40;;
3261;SDS011;1643;47.746;9.000;2024-03-25T10:34:43;3.03;;;1.40;;
3261;SDS011;1643;47.746;9.000;2024-03-25T10:37:09;3.43;;;1.90;;
3261;SDS011;1643;47.746;9.000;2024-03-25T10:39:38;1.97;;;1.87;;
3261;SDS011;1643;47.746;9.000;2024-03-25T10:42:07;2.90;;;2.07;;
3261;SDS011;1643;47.746;9.000;2024-03-25T10:44:34;2.30;;;1.80;;
3261;SDS011;1643;47.746;9.000;2024-03-25T10:47:01;2.20;;;1.60;;
3261;SDS011;1643;47.746;9.000;2024-03-25T10:49:33;2.83;;;1.80;;
3261;SDS011;1643;47.746;9.000;2024-03-25T10:52:06;6.70;;;1.90;;
3261;SDS011;1643;47.746;9.000;2024-03-25T10:54:33;2.43;;;1.70;;
3261;SDS011;1643;47.746;9.000;2024-03-25T10:57:00;3.20;;;2.10;;
3261;SDS011;1643;47.746;9.000;2024-03-25T10:59:29;1.67;;;1.33;;
3261;SDS011;1643;47.746;9.000;2024-03-25T11:01:55;2.97;;;1.80;;
3261;SDS011;1643;47.746;9.000;2024-03-25T11:04:21;2.00;;;1.50;;
3261;SDS011;1643;47.746;9.000;2024-03-25T11:06:49;1.90;;;1.67;;
3261;SDS011;1643;47.746;9.000;2024-03-25T11:09:22;2.50;;;1.37;;
3261;SDS011;1643;47.746;9.000;2024-03-25T11:11:51;1.50;;;1.30;;
3261;SDS011;1643;47.746;9.000;2024-03-25T11:14:19;2.37;;;1.47;;
3261;SDS011;1643;47.746;9.000;2024-03-25T11:16:52;2.17;;;1.90;;
3261;SDS011;1643;47.746;9.000;2024-03-25T11:19:20;1.77;;;1.47;;
3261;SDS011;1643;47.746;9.000;2024-03-25T11:21:50;3.20;;;2.03;;
3261;SDS011;1643;47.746;9.000;2024-03-25T11:24:25;2.03;;;1.83;;
3261;SDS011;1643;47.746;9.000;2024-03-25T11:26:55;2.60;;;2.03;;
3261;SDS011;1643;47.746;9.000;2024-03-25T11:29:21;3.83;;;2.60;;
3261;SDS011;1643;47.746;9.000;2024-03-25T11:31:48;1.40;;;1.30;;
3261;SDS011;1643;47.746;9.000;2024-03-25T11:34:15;1.67;;;1.53;;
3261;SDS011;1643;47.746;9.000;2024-03-25T11:36:41;2.70;;;1.30;;
3261;SDS011;1643;47.746;9.000;2024-03-25T11:39:06;2.07;;;1.40;;
3261;SDS011;1643;47.746;9.000;2024-03-25T11:41:44;2.23;;;1.77;;
3261;SDS011;1643;47.746;9.000;2024-03-25T11:44:10;1.60;;;1.37;;
3261;SDS011;1643;47.746;9.000;2024-03-25T11:46:41;2.00;;;1.80;;
3261;SDS011;1643;47.746;9.000;2024-03-25T11:49:08;2.70;;;1.70;;
3261;SDS011;1643;47.746;9.000;2024-03-25T11:51:37;3.43;;;1.37;;
3261;SDS011;1643;47.746;9.000;2024-03-25T11:54:06;1.43;;;1.33;;
3261;SDS011;1643;47.746;9.000;2024-03-25T11:56:35;1.50;;;1.40;;
3261;SDS011;1643;47.746;9.000;2024-03-25T11:59:02;2.87;;;1.60;;
3261;SDS011;1643;47.746;9.000;2024-03-25T12:01:29;1.57;;;1.30;;
3261;SDS011;1643;47.746;9.000;2024-03-25T12:03:55;4.10;;;1.70;;
3261;SDS011;1643;47.746;9.000;2024-03-25T12:06:20;1.53;;;1.23;;
3261;SDS011;1643;47.746;9.000;2024-03-25T12:08:47;2.13;;;1.40;;
3261;SDS011;1643;47.746;9.000;2024-03-25T12:11:31;2.03;;;1.70;;
3261;SDS011;1643;47.746;9.000;2024-03-25T12:13:57;3.00;;;1.37;;
3261;SDS011;1643;47.746;9.000;2024-03-25T12:16:24;2.70;;;1.27;;
3261;SDS011;1643;47.746;9.000;2024-03-25T12:18:50;3.30;;;1.77;;
3261;SDS011;1643;47.746;9.000;2024-03-25T12:21:17;3.70;;;1.30;;
3261;SDS011;1643;47.746;9.000;2024-03-25T12:23:43;1.33;;;1.20;;
3261;SDS011;1643;47.746;9.000;2024-03-25T12:26:08;1.43;;;1.33;;
3261;SDS011;1643;47.746;9.000;2024-03-25T12:28:34;1.33;;;1.00;;
3261;SDS011;1643;47.746;9.000;2024-03-25T12:31:02;3.63;;;1.23;;
3261;SDS011;1643;47.746;9.000;2024-03-25T12:33:39;1.03;;;1.03;;
3261;SDS011;1643;47.746;9.000;2024-03-25T12:36:12;1.30;;;1.00;;
3261;SDS011;1643;47.746;9.000;2024-03-25T12:38:38;1.00;;;1.00;;
3261;SDS011;1643;47.746;9.000;2024-03-25T12:41:07;0.90;;;0.90;;
3261;SDS011;1643;47.746;9.000;2024-03-25T12:43:35;2.50;;;0.90;;
3261;SDS011;1643;47.746;9.000;2024-03-25T12:46:02;1.10;;;1.00;;
3261;SDS011;1643;47.746;9.000;2024-03-25T12:48:30;1.53;;;1.00;;
3261;SDS011;1643;47.746;9.000;2024-03-25T12:50:56;1.13;;;0.90;;
3261;SDS011;1643;47.746;9.000;2024-03-25T12:53:22;1.07;;;1.00;;
3261;SDS011;1643;47.746;9.000;2024-03-25T12:55:47;3.47;;;1.00;;
3261;SDS011;1643;47.746;9.000;2024-03-25T12:58:14;1.10;;;1.00;;
3261;SDS011;1643;47.746;9.000;2024-03-25T13:00:40;1.03;;;0.90;;
3261;SDS011;1643;47.746;9.000;2024-03-25T13:03:06;0.80;;;0.80;;
3261;SDS011;1643;47.746;9.000;2024-03-25T13:05:35;0.90;;;0.90;;
3261;SDS011;1643;47.746;9.000;2024-03-25T13:08:01;4.90;;;1.77;;
3261;SDS011;1643;47.746;9.000;2024-03-25T13:10:28;1.17;;;1.00;;
3261;SDS011;1643;47.746;9.000;2024-03-25T13:12:54;1.00;;;0.90;;
3261;SDS011;1643;47.746;9.000;2024-03-25T13:15:21;2.97;;;1.40;;
3261;SDS011;1643;47.746;9.000;2024-03-25T13:17:47;1.80;;;1.20;;
3261;SDS011;1643;47.746;9.000;2024-03-25T13:20:13;1.30;;;1.20;;
3261;SDS011;1643;47.746;9.000;2024-03-25T13:22:39;1.40;;;1.03;;
3261;SDS011;1643;47.746;9.000;2024-03-25T13:25:05;1.17;;;1.07;;
3261;SDS011;1643;47.746;9.000;2024-03-25T13:27:34;3.30;;;1.20;;
3261;SDS011;1643;47.746;9.000;2024-03-25T13:29:59;1.33;;;1.03;;
3261;SDS011;1643;47.746;9.000;2024-03-25T13:32:25;1.63;;;1.10;;
3261;SDS011;1643;47.746;9.000;2024-03-25T13:34:51;1.10;;;0.93;;
3261;SDS011;1643;47.746;9.000;2024-03-25T13:37:16;2.53;;;1.50;;
3261;SDS011;1643;47.746;9.000;2024-03-25T13:39:42;0.80;;;0.80;;
3261;SDS011;1643;47.746;9.000;2024-03-25T13:42:08;0.90;;;0.90;;
3261;SDS011;1643;47.746;9.000;2024-03-25T13:44:33;1.10;;;0.87;;
3261;SDS011;1643;47.746;9.000;2024-03-25T13:46:59;3.97;;;1.23;;
3261;SDS011;1643;47.746;9.000;2024-03-25T13:49:25;1.30;;;1.13;;
3261;SDS011;1643;47.746;9.000;2024-03-25T13:51:51;1.53;;;0.97;;
3261;SDS011;1643;47.746;9.000;2024-03-25T13:54:22;0.93;;;0.80;;
3261;SDS011;1643;47.746;9.000;2024-03-25T13:56:47;0.90;;;0.90;;
3261;SDS011;1643;47.746;9.000;2024-03-25T13:59:13;1.60;;;1.00;;
3261;SDS011;1643;47.746;9.000;2024-03-25T14:01:39;1.10;;;1.00;;
3261;SDS011;1643;47.746;9.000;2024-03-25T14:04:05;1.93;;;0.90;;
3261;SDS011;1643;47.746;9.000;2024-03-25T14:06:31;3.53;;;1.20;;
3261;SDS011;1643;47.746;9.000;2024-03-25T14:08:58;1.00;;;0.90;;
3261;SDS011;1643;47.746;9.000;2024-03-25T14:11:24;1.20;;;1.00;;
3261;SDS011;1643;47.746;9.000;2024-03-25T14:13:50;1.20;;;0.90;;
3261;SDS011;1643;47.746;9.000;2024-03-25T14:16:15;1.00;;;0.73;;
3261;SDS011;1643;47.746;9.000;2024-03-25T14:18:41;1.03;;;0.93;;
3261;SDS011;1643;47.746;9.000;2024-03-25T14:21:07;1.40;;;0.80;;
3261;SDS011;1643;47.746;9.000;2024-03-25T14:23:33;1.30;;;1.20;;
3261;SDS011;1643;47.746;9.000;2024-03-25T14:25:58;3.23;;;1.23;;
3261;SDS011;1643;47.746;9.000;2024-03-25T14:28:24;1.63;;;0.80;;
3261;SDS011;1643;47.746;9.000;2024-03-25T14:30:50;0.93;;;0.80;;
3261;SDS011;1643;47.746;9.000;2024-03-25T14:33:16;1.40;;;0.80;;
3261;SDS011;1643;47.746;9.000;2024-03-25T14:35:42;2.10;;;1.10;;
3261;SDS011;1643;47.746;9.000;2024-03-25T14:38:08;1.27;;;0.87;;
3261;SDS011;1643;47.746;9.000;2024-03-25T14:40:37;1.97;;;0.90;;
3261;SDS011;1643;47.746;9.000;2024-03-25T14:43:06;1.17;;;0.90;;
3261;SDS011;1643;47.746;9.000;2024-03-25T14:45:32;1.87;;;0.80;;
3261;SDS011;1643;47.746;9.000;2024-03-25T14:47:57;2.23;;;1.30;;
3261;SDS011;1643;47.746;9.000;2024-03-25T14:50:23;2.90;;;1.17;;
3261;SDS011;1643;47.746;9.000;2024-03-25T14:52:49;2.90;;;1.13;;
3261;SDS011;1643;47.746;9.000;2024-03-25T14:55:15;0.90;;;0.90;;
3261;SDS011;1643;47.746;9.000;2024-03-25T14:57:40;1.90;;;1.30;;
3261;SDS011;1643;47.746;9.000;2024-03-25T15:00:06;1.27;;;1.17;;
3261;SDS011;1643;47.746;9.000;2024-03-25T15:02:32;1.20;;;1.10;;
3261;SDS011;1643;47.746;9.000;2024-03-25T15:04:57;3.73;;;0.90;;
3261;SDS011;1643;47.746;9.000;2024-03-25T15:07:23;0.93;;;0.90;;
3261;SDS011;1643;47.746;9.000;2024-03-25T15:09:50;2.00;;;0.93;;
3261;SDS011;1643;47.746;9.000;2024-03-25T15:12:15;2.57;;;1.00;;